Time;durP1;ratioP1;P1;durP2;ratioP2;P2;SDS_P1;SDS_P2;PMS_P1;PMS_P2;Temp;Humidity;BMP_temperature;BMP_pressure;BME280_temperature;BME280_humidity;BME280_pressure;Samples;Min_cycle;Max_cycle;Signal;HPM_P1;HPM_P2
2024/02/28 00:00:00;;;;;;;20.63;12.47;;;;;2.30;101494.00;;;;10350362;28;20644;-78
2024/02/28 00:05:02;;;;;;;21.07;13.20;;;;;2.30;101491.00;;;;10366337;28;20318;-77
2024/02/28 00:10:03;;;;;;;22.13;13.77;;;;;2.30;101489.00;;;;10384461;28;20761;-77
2024/02/28 00:15:10;;;;;;;22.50;13.27;;;;;2.40;101489.00;;;;10372900;28;20905;-77
2024/02/28 00:20:13;;;;;;;22.83;13.33;;;;;2.40;101483.00;;;;10404717;28;20685;-76
2024/02/28 00:25:15;;;;;;;19.73;13.80;;;;;2.30;101476.00;;;;10385075;28;20237;-77
2024/02/28 00:30:17;;;;;;;26.30;15.47;;;;;2.40;101468.00;;;;10382453;28;20376;-80
2024/02/28 00:35:18;;;;;;;24.40;15.70;;;;;2.50;101476.00;;;;10377563;28;20223;-79
2024/02/28 00:40:19;;;;;;;24.43;15.17;;;;;2.50;101477.00;;;;10358673;28;20313;-78
2024/02/28 00:45:21;;;;;;;24.13;15.43;;;;;2.40;101469.00;;;;10368551;28;20838;-79
2024/02/28 00:50:22;;;;;;;23.33;15.07;;;;;2.30;101476.00;;;;10384665;28;20233;-79
2024/02/28 00:55:23;;;;;;;22.47;14.57;;;;;2.20;101474.00;;;;10380048;28;20233;-79
2024/02/28 01:00:24;;;;;;;20.67;14.00;;;;;2.10;101479.00;;;;10394377;28;20352;-79
2024/02/28 01:05:25;;;;;;;26.87;15.30;;;;;1.90;101478.00;;;;10378049;28;20223;-79
2024/02/28 01:10:26;;;;;;;20.27;13.60;;;;;1.80;101465.00;;;;10363765;28;20677;-80
2024/02/28 01:15:28;;;;;;;23.03;14.70;;;;;1.80;101479.00;;;;10350467;28;20222;-79
2024/02/28 01:20:29;;;;;;;24.73;14.60;;;;;1.70;101468.00;;;;10373865;28;20214;-79
2024/02/28 01:25:30;;;;;;;23.10;14.80;;;;;1.70;101469.00;;;;10377721;28;20271;-79
2024/02/28 01:30:31;;;;;;;24.23;13.57;;;;;1.70;101469.00;;;;10378622;28;20309;-80
2024/02/28 01:35:32;;;;;;;18.10;12.97;;;;;1.60;101454.00;;;;10381304;28;20226;-79
2024/02/28 01:40:33;;;;;;;21.37;13.23;;;;;1.40;101458.00;;;;10379272;28;20226;-79
2024/02/28 01:45:35;;;;;;;20.90;13.57;;;;;1.40;101467.00;;;;10405356;28;20222;-79
2024/02/28 01:50:37;;;;;;;21.80;13.13;;;;;1.40;101472.00;;;;10376830;28;20245;-79
2024/02/28 01:55:38;;;;;;;22.53;12.37;;;;;1.30;101466.00;;;;10377867;28;20309;-79
2024/02/28 02:00:39;;;;;;;19.67;13.23;;;;;1.40;101468.00;;;;10398005;28;20237;-78
2024/02/28 02:05:41;;;;;;;20.80;13.50;;;;;1.50;101471.00;;;;10383867;28;20226;-78
2024/02/28 02:10:43;;;;;;;21.33;13.13;;;;;1.50;101469.00;;;;10384016;28;20996;-78
2024/02/28 02:15:44;;;;;;;21.97;12.90;;;;;1.40;101462.00;;;;10376468;28;20223;-80
2024/02/28 02:20:50;;;;;;;20.80;13.73;;;;;1.40;101456.00;;;;10377972;28;20305;-80
2024/02/28 02:25:51;;;;;;;24.67;14.13;;;;;1.50;101469.00;;;;10385403;28;20255;-80
2024/02/28 02:30:52;;;;;;;24.77;13.80;;;;;1.50;101467.00;;;;10374731;28;20226;-80
2024/02/28 02:35:54;;;;;;;22.00;12.60;;;;;1.50;101467.00;;;;10325412;28;20216;-79
2024/02/28 02:40:55;;;;;;;20.73;13.83;;;;;1.40;101484.00;;;;10370186;28;20847;-80
2024/02/28 02:45:56;;;;;;;19.47;11.93;;;;;1.40;101483.00;;;;10357972;28;20302;-79
2024/02/28 02:50:57;;;;;;;25.87;13.87;;;;;1.50;101481.00;;;;10346569;28;20219;-79
2024/02/28 02:55:58;;;;;;;24.63;13.40;;;;;1.60;101474.00;;;;10354197;28;20307;-79
2024/02/28 03:00:59;;;;;;;21.67;14.07;;;;;1.70;101467.00;;;;10366363;28;20310;-81
2024/02/28 03:06:01;;;;;;;27.23;16.90;;;;;1.70;101466.00;;;;10351303;28;20279;-79
2024/02/28 03:11:04;;;;;;;28.10;14.23;;;;;1.70;101475.00;;;;10382501;28;20224;-78
2024/02/28 03:16:06;;;;;;;21.87;14.37;;;;;1.70;101463.00;;;;10360840;28;20294;-79
2024/02/28 03:21:07;;;;;;;20.43;13.53;;;;;1.70;101472.00;;;;10376913;28;20218;-78
2024/02/28 03:26:08;;;;;;;21.67;14.03;;;;;1.70;101468.00;;;;10399744;28;20309;-80
2024/02/28 03:31:09;;;;;;;21.40;13.60;;;;;1.80;101475.00;;;;10378071;28;20869;-78
2024/02/28 03:36:10;;;;;;;22.40;13.13;;;;;1.60;101476.00;;;;10379630;28;20250;-79
2024/02/28 03:41:11;;;;;;;25.30;14.67;;;;;1.60;101474.00;;;;10374848;28;20222;-79
2024/02/28 03:46:12;;;;;;;22.63;15.17;;;;;1.70;101465.00;;;;10369930;28;20222;-80
2024/02/28 03:51:13;;;;;;;27.23;15.03;;;;;1.80;101469.00;;;;10364428;28;20268;-79
2024/02/28 03:56:25;;;;;;;21.20;13.77;;;;;1.80;101464.00;;;;10361636;28;20227;-79
2024/02/28 04:01:27;;;;;;;22.43;15.63;;;;;1.80;101474.00;;;;10368541;28;20218;-79
2024/02/28 04:06:29;;;;;;;21.50;12.97;;;;;1.80;101474.00;;;;10317954;28;20272;-79
2024/02/28 04:11:31;;;;;;;22.53;14.30;;;;;1.70;101477.00;;;;10347801;28;20222;-79
2024/02/28 04:16:32;;;;;;;20.70;12.23;;;;;1.60;101477.00;;;;10340920;28;20707;-80
2024/02/28 04:21:33;;;;;;;24.27;13.60;;;;;1.60;101474.00;;;;10363366;28;20226;-79
2024/02/28 04:26:34;;;;;;;19.03;13.07;;;;;1.60;101468.00;;;;10357268;28;20226;-80
2024/02/28 04:31:38;;;;;;;21.93;13.70;;;;;1.60;101466.00;;;;10363206;28;20226;-79
2024/02/28 04:36:39;;;;;;;20.20;10.40;;;;;1.60;101467.00;;;;10340524;28;20222;-80
2024/02/28 04:41:40;;;;;;;19.27;12.33;;;;;1.60;101468.00;;;;10359672;28;20723;-80
2024/02/28 04:46:41;;;;;;;20.93;11.80;;;;;1.60;101462.00;;;;10368563;28;20222;-80
2024/02/28 04:51:42;;;;;;;21.63;11.47;;;;;1.70;101472.00;;;;10367927;28;20238;-80
2024/02/28 04:56:43;;;;;;;19.93;11.97;;;;;1.70;101482.00;;;;10347088;28;20301;-80
2024/02/28 05:01:45;;;;;;;17.97;11.40;;;;;1.70;101482.00;;;;10334153;28;20223;-79
2024/02/28 05:06:46;;;;;;;20.83;12.20;;;;;1.70;101496.00;;;;10358679;28;20223;-79
2024/02/28 05:11:48;;;;;;;18.80;11.40;;;;;1.60;101505.00;;;;10359186;28;20214;-79
2024/02/28 05:16:49;;;;;;;19.20;11.23;;;;;1.60;101515.00;;;;10356417;28;20309;-79
2024/02/28 05:21:50;;;;;;;17.17;11.60;;;;;1.50;101512.00;;;;10377613;28;20302;-79
2024/02/28 05:26:51;;;;;;;17.07;10.97;;;;;1.40;101517.00;;;;10358672;28;20222;-79
2024/02/28 05:31:52;;;;;;;17.77;11.53;;;;;1.30;101517.00;;;;10358639;28;20310;-79
2024/02/28 05:36:53;;;;;;;19.87;11.90;;;;;1.50;101527.00;;;;10342285;28;20944;-79
2024/02/28 05:41:55;;;;;;;19.27;12.53;;;;;1.50;101517.00;;;;10365469;28;20234;-79
2024/02/28 05:46:56;;;;;;;23.07;13.43;;;;;1.50;101504.00;;;;10368511;28;20222;-79
2024/02/28 05:51:57;;;;;;;22.47;13.33;;;;;1.40;101509.00;;;;10356101;28;20297;-79
2024/02/28 05:56:58;;;;;;;21.60;12.17;;;;;1.40;101500.00;;;;10354839;28;20226;-79
2024/02/28 06:01:59;;;;;;;21.77;13.30;;;;;1.40;101494.00;;;;10332077;28;20349;-79
2024/02/28 06:07:01;;;;;;;24.40;13.70;;;;;1.50;101502.00;;;;10350666;28;20219;-79
2024/02/28 06:12:03;;;;;;;29.30;16.07;;;;;1.60;101505.00;;;;10352014;28;20873;-79
2024/02/28 06:17:04;;;;;;;27.03;14.20;;;;;1.70;101506.00;;;;10361356;28;20247;-79
2024/02/28 06:22:07;;;;;;;31.73;16.80;;;;;1.70;101520.00;;;;10362446;28;20215;-80
2024/02/28 06:27:12;;;;;;;25.83;15.80;;;;;1.80;101515.00;;;;10360511;28;20628;-79
2024/02/28 06:32:13;;;;;;;31.87;16.13;;;;;1.90;101527.00;;;;10336740;28;20289;-78
2024/02/28 06:37:14;;;;;;;28.20;14.87;;;;;2.00;101521.00;;;;10366989;28;20321;-79
2024/02/28 06:42:15;;;;;;;29.27;15.80;;;;;2.20;101516.00;;;;10362009;28;20313;-82
2024/02/28 06:47:18;;;;;;;30.00;15.20;;;;;2.60;101528.00;;;;10341847;28;20690;-80
2024/02/28 06:52:19;;;;;;;30.63;14.10;;;;;3.00;101534.00;;;;10394153;28;20226;-80
2024/02/28 06:57:20;;;;;;;24.60;15.93;;;;;3.30;101545.00;;;;10366958;28;20226;-79
2024/02/28 07:02:21;;;;;;;22.70;14.80;;;;;3.40;101556.00;;;;10361905;28;20276;-80
2024/02/28 07:07:22;;;;;;;31.03;17.13;;;;;3.50;101578.00;;;;10363918;28;20213;-81
2024/02/28 07:12:24;;;;;;;25.37;15.07;;;;;3.60;101573.00;;;;10377522;28;20223;-81
2024/02/28 07:17:25;;;;;;;27.33;16.03;;;;;3.70;101587.00;;;;10364978;28;20218;-81
2024/02/28 07:22:26;;;;;;;32.90;17.53;;;;;3.90;101595.00;;;;10385450;28;20701;-81
2024/02/28 07:27:28;;;;;;;34.97;17.20;;;;;4.10;101598.00;;;;10395134;28;20310;-76
2024/02/28 07:32:34;;;;;;;32.20;17.03;;;;;4.20;101595.00;;;;10381174;28;20227;-79
2024/02/28 07:37:35;;;;;;;27.40;16.77;;;;;4.50;101598.00;;;;10368303;28;20250;-77
2024/02/28 07:42:36;;;;;;;30.80;16.77;;;;;4.70;101600.00;;;;10368850;28;20326;-77
2024/02/28 07:47:38;;;;;;;38.33;20.93;;;;;4.90;101591.00;;;;10363601;28;21017;-77
2024/02/28 07:52:39;;;;;;;30.60;17.20;;;;;5.00;101604.00;;;;10381839;28;20215;-77
2024/02/28 07:57:40;;;;;;;32.10;17.87;;;;;5.20;101613.00;;;;10363296;28;20222;-80
2024/02/28 08:02:41;;;;;;;36.57;18.70;;;;;5.40;101615.00;;;;10367252;28;20214;-77
2024/02/28 08:07:43;;;;;;;35.63;19.10;;;;;5.90;101621.00;;;;10355541;28;20226;-77
2024/02/28 08:12:44;;;;;;;37.40;18.50;;;;;6.30;101623.00;;;;10370670;28;20273;-78
2024/02/28 08:17:45;;;;;;;44.60;21.63;;;;;6.70;101627.00;;;;10371712;28;20219;-78
2024/02/28 08:22:46;;;;;;;44.50;21.87;;;;;6.90;101633.00;;;;10387800;28;20752;-78
2024/02/28 08:27:48;;;;;;;34.30;19.00;;;;;7.00;101644.00;;;;10361935;28;20226;-77
2024/02/28 08:32:49;;;;;;;34.47;19.03;;;;;7.10;101650.00;;;;10372075;28;20227;-77
2024/02/28 08:37:50;;;;;;;34.87;18.73;;;;;7.20;101650.00;;;;10385880;28;20256;-77
2024/02/28 08:42:54;;;;;;;33.17;17.13;;;;;7.40;101652.00;;;;10377175;28;20349;-78
2024/02/28 08:47:57;;;;;;;31.67;16.97;;;;;7.60;101650.00;;;;10354725;28;20218;-80
2024/02/28 08:52:58;;;;;;;29.27;15.87;;;;;7.70;101648.00;;;;10358902;28;20215;-79
2024/02/28 08:57:59;;;;;;;35.03;16.23;;;;;7.70;101658.00;;;;10355897;28;20226;-79
2024/02/28 09:03:01;;;;;;;30.07;15.00;;;;;7.60;101655.00;;;;10355548;28;20221;-78
2024/02/28 09:08:03;;;;;;;30.03;13.73;;;;;7.50;101659.00;;;;10371040;28;20305;-77
2024/02/28 09:13:04;;;;;;;32.83;15.23;;;;;7.50;101664.00;;;;10371770;28;20226;-78
2024/02/28 09:18:05;;;;;;;27.33;13.43;;;;;7.40;101663.00;;;;10393446;28;20857;-78
2024/02/28 09:23:07;;;;;;;27.23;15.03;;;;;7.20;101662.00;;;;10356296;28;20950;-79
2024/02/28 09:28:10;;;;;;;30.83;14.60;;;;;7.20;101666.00;;;;10379365;28;20292;-79
2024/02/28 09:33:12;;;;;;;26.57;14.20;;;;;7.30;101676.00;;;;10355647;28;20782;-77
2024/02/28 09:38:13;;;;;;;29.90;15.83;;;;;7.30;101668.00;;;;10362717;28;20223;-78
2024/02/28 09:43:31;;;;;;;30.27;16.37;;;;;7.40;101673.00;;;;10370580;28;20234;-78
2024/02/28 09:48:33;;;;;;;31.73;15.93;;;;;7.40;101663.00;;;;10356159;28;20223;-78
2024/02/28 09:53:34;;;;;;;33.23;16.13;;;;;7.70;101657.00;;;;10361781;28;20932;-79
2024/02/28 09:58:35;;;;;;;44.07;17.37;;;;;8.20;101664.00;;;;10337859;28;20322;-79
2024/02/28 10:03:39;;;;;;;37.47;16.17;;;;;8.40;101653.00;;;;10361180;28;20222;-80
2024/02/28 10:08:40;;;;;;;37.13;17.30;;;;;8.40;101663.00;;;;10357374;28;20253;-79
2024/02/28 10:13:42;;;;;;;37.30;17.57;;;;;8.50;101654.00;;;;10350450;28;20620;-79
2024/02/28 10:18:44;;;;;;;37.47;16.03;;;;;8.90;101655.00;;;;10369296;28;20298;-79
2024/02/28 10:23:45;;;;;;;35.13;15.77;;;;;9.30;101652.00;;;;10368124;28;20215;-80
2024/02/28 10:28:46;;;;;;;26.20;14.53;;;;;9.70;101642.00;;;;10371651;28;20996;-80
2024/02/28 10:33:48;;;;;;;31.20;15.47;;;;;9.90;101643.00;;;;10365675;28;20222;-79
2024/02/28 10:38:49;;;;;;;31.03;15.37;;;;;10.20;101635.00;;;;10361198;28;20229;-79
2024/02/28 10:43:51;;;;;;;30.27;14.17;;;;;10.50;101634.00;;;;10380530;28;20301;-81
2024/02/28 10:48:54;;;;;;;28.70;14.40;;;;;11.00;101628.00;;;;10346927;28;21026;-80
2024/02/28 10:54:09;;;;;;;26.40;13.63;;;;;11.30;101638.00;;;;10373117;28;20346;-80
2024/02/28 10:59:12;;;;;;;21.60;12.03;;;;;11.00;101635.00;;;;10368848;28;20225;-79
2024/02/28 11:04:16;;;;;;;19.30;11.47;;;;;11.10;101637.00;;;;10364443;28;20218;-79
2024/02/28 11:09:27;;;;;;;24.90;10.47;;;;;11.30;101642.00;;;;10382145;28;20296;-80
2024/02/28 11:14:29;;;;;;;18.73;10.47;;;;;10.90;101636.00;;;;10397450;28;20227;-80
2024/02/28 11:19:32;;;;;;;17.33;10.90;;;;;10.70;101628.00;;;;10399243;28;20309;-78
2024/02/28 11:24:36;;;;;;;19.50;9.57;;;;;10.50;101632.00;;;;10376004;28;20250;-79
2024/02/28 11:29:38;;;;;;;17.57;9.67;;;;;10.50;101648.00;;;;10384516;28;20218;-79
2024/02/28 11:34:40;;;;;;;18.00;8.63;;;;;10.40;101642.00;;;;10381043;28;20230;-79
2024/02/28 11:39:49;;;;;;;14.73;8.53;;;;;10.60;101636.00;;;;10395067;28;20221;-78
2024/02/28 11:44:57;;;;;;;14.07;8.30;;;;;10.90;101631.00;;;;10359533;28;20736;-79
2024/02/28 11:50:03;;;;;;;15.07;8.33;;;;;10.80;101625.00;;;;10413253;28;20226;-79
2024/02/28 11:55:08;;;;;;;13.60;8.07;;;;;10.90;101623.00;;;;10357315;28;20280;-80
2024/02/28 12:00:12;;;;;;;10.13;6.73;;;;;10.90;101618.00;;;;10395036;28;20234;-79
2024/02/28 12:05:14;;;;;;;13.10;6.67;;;;;10.90;101617.00;;;;10389957;28;20222;-79
2024/02/28 12:10:15;;;;;;;10.97;6.13;;;;;10.80;101606.00;;;;10355728;28;20223;-80
2024/02/28 12:15:16;;;;;;;10.67;5.67;;;;;10.90;101608.00;;;;10386214;28;20729;-81
2024/02/28 12:20:18;;;;;;;8.50;5.57;;;;;11.30;101602.00;;;;10324044;28;20258;-80
2024/02/28 12:25:19;;;;;;;11.80;5.30;;;;;11.40;101596.00;;;;10306147;28;20224;-80
2024/02/28 12:30:20;;;;;;;9.70;5.17;;;;;11.40;101589.00;;;;10313190;28;20234;-80
2024/02/28 12:35:22;;;;;;;9.07;5.10;;;;;11.30;101577.00;;;;10329429;28;20238;-81
2024/02/28 12:40:25;;;;;;;6.80;4.90;;;;;11.30;101571.00;;;;10333207;28;20254;-79
2024/02/28 12:45:26;;;;;;;11.47;5.43;;;;;11.30;101578.00;;;;10340117;28;20253;-79
2024/02/28 12:50:27;;;;;;;12.27;6.67;;;;;11.40;101581.00;;;;10375727;28;20297;-79
2024/02/28 12:55:28;;;;;;;12.90;7.67;;;;;11.50;101567.00;;;;10361787;28;20294;-80
2024/02/28 13:00:30;;;;;;;14.23;8.43;;;;;11.50;101568.00;;;;10358690;28;20219;-79
2024/02/28 13:05:32;;;;;;;14.00;7.37;;;;;11.40;101560.00;;;;10357221;28;20220;-79
2024/02/28 13:10:39;;;;;;;5.47;4.03;;;;;11.30;101556.00;;;;10359157;28;20307;-80
2024/02/28 13:15:45;;;;;;;10.17;5.53;;;;;11.40;101568.00;;;;10357601;28;20214;-79
2024/02/28 13:20:46;;;;;;;9.33;5.57;;;;;11.20;101572.00;;;;10380149;28;20222;-81
2024/02/28 13:25:48;;;;;;;8.83;4.63;;;;;11.10;101560.00;;;;10364715;28;20256;-82
2024/02/28 13:30:49;;;;;;;5.93;4.50;;;;;11.20;101563.00;;;;10387258;28;20238;-80
2024/02/28 13:35:50;;;;;;;9.90;5.03;;;;;11.50;101560.00;;;;10376046;28;20249;-80
2024/02/28 13:40:52;;;;;;;6.93;4.97;;;;;11.90;101542.00;;;;10377727;28;20237;-80
2024/02/28 13:45:55;;;;;;;10.40;4.60;;;;;12.30;101508.00;;;;10370405;28;20272;-80
2024/02/28 13:50:56;;;;;;;7.23;4.20;;;;;12.60;101504.00;;;;10393681;28;20223;-79
2024/02/28 13:55:57;;;;;;;5.70;4.00;;;;;13.00;101488.00;;;;10382269;28;20358;-79
2024/02/28 14:00:59;;;;;;;7.95;4.47;;;;;13.20;101473.00;;;;10341188;28;20364;-80
2024/02/28 14:06:01;;;;;;;7.40;3.67;;;;;13.20;101473.00;;;;10351541;28;20221;-79
2024/02/28 14:11:02;;;;;;;5.75;4.20;;;;;13.10;101474.00;;;;10372363;28;20531;-79
2024/02/28 14:16:03;;;;;;;9.45;5.10;;;;;13.20;101480.00;;;;10361195;28;20632;-78
2024/02/28 14:21:05;;;;;;;6.03;4.47;;;;;13.00;101481.00;;;;10348445;28;20214;-78
2024/02/28 14:26:08;;;;;;;4.03;3.63;;;;;12.90;101481.00;;;;10374730;28;20227;-77
2024/02/28 14:31:10;;;;;;;6.33;4.17;;;;;12.70;101486.00;;;;10381455;28;20215;-77
2024/02/28 14:36:12;;;;;;;3.83;3.07;;;;;12.70;101484.00;;;;10379374;28;20227;-80
2024/02/28 14:41:13;;;;;;;5.28;3.15;;;;;12.60;101490.00;;;;10383196;28;20313;-78
2024/02/28 14:46:17;;;;;;;4.25;3.50;;;;;12.80;101488.00;;;;10392311;28;20297;-77
2024/02/28 14:51:19;;;;;;;5.87;3.87;;;;;12.60;101484.00;;;;10364251;28;20218;-78
2024/02/28 14:56:20;;;;;;;6.70;4.90;;;;;12.30;101478.00;;;;10375566;28;20306;-78
2024/02/28 15:01:23;;;;;;;6.10;4.47;;;;;11.90;101490.00;;;;10367970;28;20273;-78
2024/02/28 15:06:24;;;;;;;8.13;4.50;;;;;11.60;101489.00;;;;10366187;28;20214;-77
2024/02/28 15:11:25;;;;;;;10.33;4.57;;;;;11.70;101490.00;;;;10393952;28;20219;-80
2024/02/28 15:16:27;;;;;;;6.30;3.80;;;;;11.50;101494.00;;;;10366524;28;20929;-78
2024/02/28 15:21:28;;;;;;;5.60;3.87;;;;;11.60;101479.00;;;;10398295;28;20226;-78
2024/02/28 15:26:30;;;;;;;4.93;3.53;;;;;11.60;101474.00;;;;10376127;28;20776;-77
2024/02/28 15:31:43;;;;;;;8.63;3.47;;;;;11.60;101462.00;;;;10360500;28;20226;-78
2024/02/28 15:36:44;;;;;;;3.80;3.10;;;;;11.20;101465.00;;;;10389355;28;20294;-81
2024/02/28 15:41:46;;;;;;;5.07;2.83;;;;;10.80;101474.00;;;;10362101;28;21252;-80
2024/02/28 15:46:47;;;;;;;4.77;3.10;;;;;10.80;101448.00;;;;10361160;28;20206;-80
2024/02/28 15:51:48;;;;;;;4.83;3.30;;;;;10.80;101451.00;;;;10378516;28;20219;-80
2024/02/28 15:56:50;;;;;;;5.03;3.30;;;;;10.60;101458.00;;;;10380752;28;20227;-81
2024/02/28 16:01:51;;;;;;;5.57;3.07;;;;;10.50;101440.00;;;;10376500;28;20222;-80
2024/02/28 16:06:52;;;;;;;6.30;2.90;;;;;10.40;101449.00;;;;10397633;28;20219;-80
2024/02/28 16:11:53;;;;;;;4.53;2.97;;;;;10.30;101442.00;;;;10398417;28;20226;-80
2024/02/28 16:16:55;;;;;;;7.20;2.97;;;;;10.20;101449.00;;;;10380715;28;20236;-81
2024/02/28 16:21:56;;;;;;;4.20;2.90;;;;;10.10;101449.00;;;;10364423;28;20253;-80
2024/02/28 16:26:57;;;;;;;7.13;3.53;;;;;9.90;101447.00;;;;10380561;28;20219;-80
2024/02/28 16:31:58;;;;;;;4.67;2.80;;;;;9.80;101457.00;;;;10377835;28;20300;-79
2024/02/28 16:37:02;;;;;;;5.20;3.13;;;;;9.70;101459.00;;;;10385242;28;20214;-80
2024/02/28 16:42:03;;;;;;;5.17;2.83;;;;;9.60;101445.00;;;;10375055;28;20799;-80
2024/02/28 16:47:04;;;;;;;4.40;3.37;;;;;9.50;101443.00;;;;10360471;28;20246;-80
2024/02/28 16:52:06;;;;;;;5.33;3.50;;;;;9.40;101441.00;;;;10395709;28;20304;-81
2024/02/28 16:57:07;;;;;;;5.67;3.20;;;;;9.30;101413.00;;;;10382600;28;20298;-81
2024/02/28 17:02:09;;;;;;;8.37;3.73;;;;;9.10;101414.00;;;;10371452;28;20310;-80
2024/02/28 17:07:10;;;;;;;5.53;3.97;;;;;9.00;101421.00;;;;10356962;28;20222;-80
2024/02/28 17:12:12;;;;;;;6.07;4.00;;;;;8.80;101424.00;;;;10416644;28;20234;-81
2024/02/28 17:17:14;;;;;;;9.63;4.20;;;;;8.70;101416.00;;;;10376939;28;20258;-81
2024/02/28 17:22:16;;;;;;;7.70;4.50;;;;;8.70;101419.00;;;;10388756;28;20226;-81
2024/02/28 17:27:17;;;;;;;7.90;4.13;;;;;8.60;101422.00;;;;10375744;28;20891;-81
2024/02/28 17:32:18;;;;;;;5.33;4.50;;;;;8.50;101425.00;;;;10370527;28;20225;-79
2024/02/28 17:37:21;;;;;;;5.30;4.43;;;;;8.40;101415.00;;;;10391442;28;21004;-80
2024/02/28 17:42:22;;;;;;;8.27;4.87;;;;;8.40;101428.00;;;;10378759;28;20345;-80
2024/02/28 17:47:25;;;;;;;9.20;5.53;;;;;8.30;101422.00;;;;10376203;28;20940;-81
2024/02/28 17:52:27;;;;;;;8.60;4.60;;;;;8.30;101420.00;;;;10374724;28;20273;-81
2024/02/28 17:57:32;;;;;;;9.47;6.37;;;;;8.20;101417.00;;;;10388595;28;20237;-78
2024/02/28 18:02:33;;;;;;;5.07;4.57;;;;;8.10;101416.00;;;;10372129;28;20223;-79
2024/02/28 18:07:35;;;;;;;5.90;4.97;;;;;8.00;101414.00;;;;10373261;28;20250;-79
2024/02/28 18:12:39;;;;;;;7.03;4.70;;;;;7.90;101409.00;;;;10372345;28;20301;-79
2024/02/28 18:17:40;;;;;;;8.03;5.63;;;;;7.90;101410.00;;;;10384624;28;20309;-79
2024/02/28 18:22:42;;;;;;;6.83;5.20;;;;;7.80;101405.00;;;;10391547;28;20230;-78
2024/02/28 18:27:43;;;;;;;9.93;5.93;;;;;7.70;101386.00;;;;10379485;28;20668;-80
2024/02/28 18:32:47;;;;;;;7.23;6.17;;;;;7.70;101390.00;;;;10381383;28;20226;-78
2024/02/28 18:37:48;;;;;;;7.30;5.33;;;;;7.60;101381.00;;;;10365783;28;20360;-79
2024/02/28 18:42:49;;;;;;;8.03;6.17;;;;;7.60;101377.00;;;;10372751;28;20232;-78
2024/02/28 18:47:50;;;;;;;8.47;4.47;;;;;7.50;101385.00;;;;10382730;28;20581;-78
2024/02/28 18:52:54;;;;;;;7.10;6.30;;;;;7.50;101388.00;;;;10381732;28;20215;-79
2024/02/28 18:57:57;;;;;;;11.60;6.57;;;;;7.30;101381.00;;;;10393626;28;20576;-79
2024/02/28 19:02:59;;;;;;;12.50;6.07;;;;;7.20;101381.00;;;;10360864;28;20219;-79
2024/02/28 19:08:01;;;;;;;9.13;7.03;;;;;7.00;101370.00;;;;10363874;28;20226;-79
2024/02/28 19:13:03;;;;;;;9.40;6.30;;;;;6.90;101346.00;;;;10394565;28;20310;-78
2024/02/28 19:18:05;;;;;;;12.57;7.23;;;;;6.90;101352.00;;;;10393093;28;21269;-79
2024/02/28 19:23:08;;;;;;;10.53;7.50;;;;;6.80;101349.00;;;;10365165;28;20276;-79
2024/02/28 19:28:09;;;;;;;11.27;6.30;;;;;6.70;101350.00;;;;10361096;28;20254;-79
2024/02/28 19:33:10;;;;;;;8.87;7.20;;;;;6.70;101349.00;;;;10410653;28;20223;-79
2024/02/28 19:38:11;;;;;;;11.90;8.43;;;;;6.70;101342.00;;;;10379284;28;20238;-79
2024/02/28 19:43:13;;;;;;;12.03;8.10;;;;;6.60;101332.00;;;;10367894;28;20321;-79
2024/02/28 19:48:14;;;;;;;10.27;7.50;;;;;6.60;101332.00;;;;10369275;28;20223;-78
2024/02/28 19:53:15;;;;;;;12.70;8.10;;;;;6.50;101339.00;;;;10423953;28;20227;-79
2024/02/28 19:58:17;;;;;;;15.70;8.07;;;;;6.40;101331.00;;;;10398523;28;20673;-78
2024/02/28 20:03:19;;;;;;;14.57;8.33;;;;;6.40;101334.00;;;;10361573;28;20237;-78
2024/02/28 20:08:20;;;;;;;12.63;8.47;;;;;6.30;101325.00;;;;10361163;28;20225;-78
2024/02/28 20:13:21;;;;;;;13.90;7.97;;;;;6.30;101321.00;;;;10371149;28;20230;-79
2024/02/28 20:18:26;;;;;;;14.27;7.67;;;;;6.30;101314.00;;;;10361198;28;20268;-77
2024/02/28 20:23:27;;;;;;;11.93;7.63;;;;;6.30;101312.00;;;;10379024;28;20300;-77
2024/02/28 20:28:28;;;;;;;13.57;7.73;;;;;6.40;101304.00;;;;10376069;28;20294;-76
2024/02/28 20:33:29;;;;;;;13.27;8.40;;;;;6.40;101296.00;;;;10355934;28;20978;-77
2024/02/28 20:38:31;;;;;;;12.37;8.00;;;;;6.30;101284.00;;;;10384001;28;20233;-76
2024/02/28 20:43:32;;;;;;;14.70;9.17;;;;;6.20;101280.00;;;;10370184;28;20214;-76
2024/02/28 20:48:33;;;;;;;16.43;7.43;;;;;6.10;101274.00;;;;10368017;28;20936;-76
2024/02/28 20:53:38;;;;;;;14.10;9.07;;;;;6.10;101274.00;;;;10372993;28;20246;-76
2024/02/28 20:58:40;;;;;;;16.63;9.83;;;;;6.00;101251.00;;;;10363522;28;20226;-79
2024/02/28 21:03:41;;;;;;;14.43;9.87;;;;;6.00;101251.00;;;;10362937;28;20313;-77
2024/02/28 21:08:43;;;;;;;15.73;9.67;;;;;5.90;101237.00;;;;10377014;28;20289;-78
2024/02/28 21:13:44;;;;;;;14.77;9.50;;;;;5.90;101236.00;;;;10380644;28;20272;-78
2024/02/28 21:18:46;;;;;;;18.03;10.10;;;;;6.00;101234.00;;;;10379715;28;20673;-78
2024/02/28 21:23:47;;;;;;;16.00;10.20;;;;;5.90;101221.00;;;;10355668;28;20226;-77
2024/02/28 21:28:48;;;;;;;16.97;10.87;;;;;5.90;101208.00;;;;10382757;28;20223;-79
2024/02/28 21:33:49;;;;;;;15.10;10.07;;;;;5.80;101206.00;;;;10374769;28;20700;-78
2024/02/28 21:38:51;;;;;;;21.70;10.73;;;;;5.80;101204.00;;;;10358329;28;20731;-78
2024/02/28 21:43:56;;;;;;;15.87;10.53;;;;;5.70;101196.00;;;;10382364;28;20220;-78
2024/02/28 21:48:57;;;;;;;16.80;11.43;;;;;5.80;101187.00;;;;10385075;28;20730;-78
2024/02/28 21:54:10;;;;;;;17.30;10.50;;;;;5.70;101189.00;;;;10373430;28;20258;-78
2024/02/28 21:59:13;;;;;;;20.27;11.73;;;;;5.60;101181.00;;;;10385470;28;20244;-78
2024/02/28 22:04:14;;;;;;;19.57;11.87;;;;;5.60;101162.00;;;;10397906;28;20751;-78
2024/02/28 22:09:15;;;;;;;20.60;11.87;;;;;5.50;101166.00;;;;10397491;28;20230;-78
2024/02/28 22:14:16;;;;;;;20.83;11.50;;;;;5.50;101159.00;;;;10398342;28;20230;-78
2024/02/28 22:19:18;;;;;;;21.13;11.57;;;;;5.60;101153.00;;;;10358912;28;20305;-78
2024/02/28 22:24:19;;;;;;;22.80;12.93;;;;;5.70;101150.00;;;;10381483;28;20230;-79
2024/02/28 22:29:22;;;;;;;18.40;11.30;;;;;5.80;101137.00;;;;10358474;28;20257;-78
2024/02/28 22:34:23;;;;;;;23.83;12.13;;;;;5.80;101135.00;;;;10364797;28;20305;-78
2024/02/28 22:39:25;;;;;;;21.87;12.27;;;;;5.80;101138.00;;;;10366125;28;20242;-78
2024/02/28 22:44:27;;;;;;;19.07;10.10;;;;;5.80;101135.00;;;;10359957;28;20276;-78
2024/02/28 22:49:28;;;;;;;25.80;12.30;;;;;5.90;101120.00;;;;10371863;28;20225;-78
2024/02/28 22:54:29;;;;;;;22.57;13.33;;;;;5.80;101106.00;;;;10368068;28;20692;-79
2024/02/28 22:59:30;;;;;;;24.77;13.97;;;;;5.80;101108.00;;;;10365868;28;20836;-79
2024/02/28 23:04:32;;;;;;;26.23;13.70;;;;;5.80;101092.00;;;;10390627;28;20219;-79
2024/02/28 23:09:33;;;;;;;21.73;13.07;;;;;5.90;101092.00;;;;10377463;28;20222;-79
2024/02/28 23:14:34;;;;;;;23.07;11.53;;;;;5.80;101091.00;;;;10349796;28;20218;-78
2024/02/28 23:19:36;;;;;;;23.60;14.67;;;;;5.90;101086.00;;;;10350115;28;20237;-78
2024/02/28 23:24:37;;;;;;;25.67;13.97;;;;;5.90;101079.00;;;;10347687;28;20242;-79
2024/02/28 23:29:38;;;;;;;19.23;12.07;;;;;6.00;101070.00;;;;10350213;28;20225;-79
2024/02/28 23:34:39;;;;;;;23.67;13.20;;;;;6.00;101065.00;;;;10366943;28;20242;-79
2024/02/28 23:39:40;;;;;;;22.53;13.00;;;;;6.10;101063.00;;;;10365308;28;20249;-79
2024/02/28 23:44:42;;;;;;;19.43;13.20;;;;;6.10;101064.00;;;;10372509;28;20628;-79
2024/02/28 23:49:44;;;;;;;20.97;12.70;;;;;6.10;101072.00;;;;10379292;28;20214;-79
2024/02/28 23:54:45;;;;;;;25.13;13.17;;;;;6.10;101051.00;;;;10370500;28;20310;-79
2024/02/28 23:59:47;;;;;;;20.37;12.23;;;;;6.00;101061.00;;;;10381268;28;20262;-80
